• Join FlightAware (Why Join?)
  • Login
  • US Flag 
08:58AM EDT


 

Airport Tracker/Info


-or-


 

Live Flight TrackerFlight Track Log ✈ DAL6036 ✈ 01-May-2013 ✈ KDTW - KGRR

Flight Track Log - Related Links

Times and Time Zones

All times are in EDT time to prevent confusion due to time zone crossing. See the DAL6036 flight status page for this flight to view local times or setup timezone preferences in your user account.

Time Position Orientation Groundspeed Altitude Reporting Facility
EDT Latitude Longitude Course Direction KTS MPH feet Rate Location/Type
08:10PM 42.2036 -83.3583 294° West 164 189 1,200  Level Cleveland Center
08:10PM 42.1797 -83.3992 232° Southwest 202 232 2,800 2,220 Climbing Cleveland Center
08:11PM 42.1406 -83.4619 230° Southwest 215 247 5,300 1,980 Climbing Cleveland Center
08:13PM 42.3166 -83.7831 294° West  Level FlightAware Approximate
08:13PM 42.1636 -83.5442 291° West 292 336 6,900  Level Cleveland Center
08:14PM 42.3450 -83.8916 285° West  Level FlightAware Approximate
08:14PM 42.2067 -83.6472 299° West 290 334 9,600  Level Cleveland Center
08:14PM 42.2319 -83.7158 296° West 284 327 10,800 1,200 Climbing Cleveland Center
08:15PM 42.3677 -84.0030 294° West  Level FlightAware Approximate
08:15PM 42.2769 -83.8217 300° West 297 342 11,700  Level Cleveland Center
08:16PM 42.3256 -83.9422 299° West 327 376 13,100 1,380 Climbing Cleveland Center
08:17PM 42.3722 -84.0628 298° West 354 407 14,600 960 Climbing Cleveland Center
08:19PM 42.4522 -84.2828 296° West 382 440 15,900 660 Climbing Chicago Center
08:19PM 42.4639 -84.3242 291° West 380 437 16,000  Climbing Cleveland Center
08:20PM 42.5136 -84.4622 296° West 393 452 15,900 -660 Descending Cleveland Center
08:21PM 42.5611 -84.6006 295° West 405 466 14,700 -1,680 Descending Cleveland Center
08:22PM 42.5981 -84.6939 298° West 401 461 12,800 -1,980 Descending Chicago Center
08:23PM 42.6425 -84.8269 294° West 390 449 11,000 -1,080 Descending Chicago Center
08:25PM 42.7494 -85.0797 300° West 330 380 9,600 -1,080 Descending Chicago Center
08:26PM 42.7942 -85.1708 304° West 298 343 7,800 -1,800 Descending Chicago Center